Time;durP1;ratioP1;P1;durP2;ratioP2;P2;SDS_P1;SDS_P2;PMS_P1;PMS_P2;Temp;Humidity;BMP_temperature;BMP_pressure;BME280_temperature;BME280_humidity;BME280_pressure;Samples;Min_cycle;Max_cycle;Signal;HPM_P1;HPM_P2
2023/05/01 00:01:31;;;;;;;15.73;6.72;;;;;;;-144.73;82.21;54292.75;5071760;28;20052;-69
2023/05/01 00:03:57;;;;;;;21.35;8.10;;;;;;;-144.73;82.25;54362.53;5054652;28;20107;-69
2023/05/01 00:06:22;;;;;;;15.60;7.00;;;;;;;-144.73;82.98;54329.72;5057731;28;20044;-69
2023/05/01 00:08:47;;;;;;;17.38;7.15;;;;;;;-144.73;83.04;54342.03;5054019;28;20032;-70
2023/05/01 00:11:13;;;;;;;19.30;7.70;;;;;;;-144.73;85.05;54333.81;5053767;28;20098;-69
2023/05/01 00:13:38;;;;;;;17.08;7.07;;;;;;;-144.73;86.06;54313.28;5053624;28;20019;-70
2023/05/01 00:16:11;;;;;;;20.88;8.25;;;;;;;-144.73;85.45;54309.19;5075005;28;20071;-69
2023/05/01 00:18:37;;;;;;;18.02;7.88;;;;;;;-144.73;88.73;54391.28;5071432;28;20020;-69
2023/05/01 00:21:02;;;;;;;21.25;6.35;;;;;;;-144.73;86.96;54305.06;5053588;28;20039;-69
2023/05/01 00:23:28;;;;;;;17.77;6.97;;;;;;;-144.73;86.53;54309.19;5071605;28;20082;-70
2023/05/01 00:25:53;;;;;;;21.95;7.43;;;;;;;-144.73;86.59;54251.72;5071388;28;20024;-70
2023/05/01 00:28:18;;;;;;;17.52;6.88;;;;;;;-144.73;86.33;54337.91;5071165;28;20086;-70
2023/05/01 00:30:44;;;;;;;16.10;7.22;;;;;;;-144.73;85.80;54325.59;5064202;28;20031;-70
2023/05/01 00:33:10;;;;;;;16.98;8.18;;;;;;;-144.73;88.00;54329.72;5046113;28;20081;-70
2023/05/01 00:35:35;;;;;;;21.73;9.10;;;;;;;-144.73;87.72;54337.91;5053058;28;20087;-70
2023/05/01 00:38:01;;;;;;;23.08;8.07;;;;;;;-144.73;86.93;54391.28;5052957;28;20028;-70
2023/05/01 00:40:26;;;;;;;19.85;9.48;;;;;;;-144.73;86.20;54296.88;5068827;28;20120;-71
2023/05/01 00:42:53;;;;;;;16.15;8.20;;;;;;;-144.73;86.48;54296.88;5046777;28;20025;-70
2023/05/01 00:45:19;;;;;;;25.80;7.65;;;;;;;-144.73;89.09;54321.50;5070758;28;20021;-70
2023/05/01 00:47:45;;;;;;;14.48;7.10;;;;;;;-144.73;89.00;54313.28;5053250;28;20024;-69
2023/05/01 00:50:12;;;;;;;21.70;7.55;;;;;;;-144.73;88.84;54346.13;5070983;28;20119;-68
2023/05/01 00:52:38;;;;;;;17.08;6.97;;;;;;;-144.73;89.74;54333.81;5062147;28;20036;-69
2023/05/01 00:55:04;;;;;;;17.80;7.20;;;;;;;-144.73;89.84;54350.22;5068485;28;20024;-69
2023/05/01 00:57:30;;;;;;;33.53;8.73;;;;;;;-144.73;91.85;54344.06;5052919;28;20510;-69
2023/05/01 00:59:56;;;;;;;21.40;8.07;;;;;;;-144.73;92.56;54305.06;5046542;28;20017;-69
2023/05/01 01:02:22;;;;;;;18.00;8.10;;;;;;;-144.73;94.96;54366.66;5070715;28;20544;-69
2023/05/01 01:04:47;;;;;;;18.90;6.50;;;;;;;-144.73;95.63;54288.66;5070756;28;20459;-69
2023/05/01 01:07:37;;;;;;;20.38;7.05;;;;;;;-144.73;95.97;54333.81;5071207;28;20040;-69
2023/05/01 01:10:20;;;;;;;15.43;6.22;;;;;;;-144.73;95.27;54305.06;5060958;28;20103;-69
2023/05/01 01:13:10;;;;;;;15.25;5.82;;;;;;;-144.73;95.59;54321.50;5049316;28;20040;-68
2023/05/01 01:15:49;;;;;;;15.90;6.55;;;;;;;-144.73;94.43;54313.28;5067404;28;20115;-69
2023/05/01 01:19:24;;;;;;;16.25;6.60;;;;;;;-144.73;94.53;54362.53;5068882;28;20398;-70
2023/05/01 01:21:54;;;;;;;17.48;6.22;;;;;;;-144.73;93.92;54300.97;5026923;28;20033;-69
2023/05/01 01:24:56;;;;;;;14.30;6.93;;;;;;;-144.73;96.20;54305.06;5053936;28;20024;-69
2023/05/01 01:27:45;;;;;;;14.23;6.32;;;;;;;-144.73;95.59;54321.50;5069753;28;20037;-69
2023/05/01 01:30:34;;;;;;;20.80;6.00;;;;;;;-144.73;95.33;54300.97;5065999;28;20472;-69
2023/05/01 01:33:37;;;;;;;16.48;6.22;;;;;;;-144.73;97.06;54333.81;5075913;28;20116;-69
2023/05/01 01:36:10;;;;;;;15.05;6.10;;;;;;;-144.73;96.04;54346.13;5046521;28;20515;-69
2023/05/01 01:38:45;;;;;;;19.52;6.18;;;;;;;-144.73;98.68;54337.91;5049778;28;20025;-69
2023/05/01 01:41:22;;;;;;;14.82;6.03;;;;;;;-144.73;98.31;54354.34;5067562;28;20032;-69
2023/05/01 01:44:02;;;;;;;15.18;5.60;;;;;;;-144.73;97.79;54333.81;5067386;28;20020;-69
2023/05/01 01:46:33;;;;;;;15.32;5.45;;;;;;;-144.73;97.90;54333.81;5050967;28;20044;-69
2023/05/01 01:48:59;;;;;;;21.42;6.13;;;;;;;-144.73;98.30;54358.44;5066194;28;20021;-69
2023/05/01 01:51:25;;;;;;;13.15;4.93;;;;;;;-144.73;97.72;54329.72;5044646;28;20147;-69
2023/05/01 01:53:52;;;;;;;11.25;4.75;;;;;;;-144.73;97.52;54356.38;5054759;28;20024;-69
2023/05/01 01:56:20;;;;;;;19.98;6.68;;;;;;;-144.73;97.62;54317.38;5069855;28;20029;-69
2023/05/01 01:58:47;;;;;;;15.05;5.85;;;;;;;-144.73;97.03;54366.66;5047581;28;20021;-69
2023/05/01 02:01:15;;;;;;;15.95;5.82;;;;;;;-144.73;98.20;54309.19;5069501;28;20035;-69
2023/05/01 02:03:43;;;;;;;10.40;5.47;;;;;;;-144.73;97.74;54325.59;5046252;28;20067;-69
2023/05/01 02:06:10;;;;;;;13.18;5.47;;;;;;;-144.73;97.38;54346.13;5048560;28;20040;-69
2023/05/01 02:08:37;;;;;;;19.30;6.18;;;;;;;-144.73;98.47;54309.19;5051987;28;20032;-70
2023/05/01 02:11:03;;;;;;;13.30;5.38;;;;;;;-144.73;98.12;54321.50;5069599;28;20024;-69
2023/05/01 02:13:32;;;;;;;16.55;5.97;;;;;;;-144.73;97.00;54337.91;5069406;28;20047;-69
2023/05/01 02:15:58;;;;;;;18.75;6.07;;;;;;;-144.73;97.05;54333.81;5069691;28;20021;-69
2023/05/01 02:18:26;;;;;;;14.38;6.15;;;;;;;-144.73;96.80;54309.19;5069594;28;20035;-69
2023/05/01 02:20:52;;;;;;;11.75;5.72;;;;;;;-144.73;99.94;54317.38;5069554;28;20051;-70
2023/05/01 02:23:17;;;;;;;18.73;6.97;;;;;;;-144.73;100.00;54342.03;5048020;28;20051;-69
2023/05/01 02:25:44;;;;;;;14.65;5.43;;;;;;;-144.73;100.00;54342.03;5065569;28;20028;-70
2023/05/01 02:28:14;;;;;;;14.57;5.43;;;;;;;-144.73;100.00;54313.28;5049677;28;20028;-70
2023/05/01 02:30:40;;;;;;;17.42;5.93;;;;;;;-144.73;100.00;54350.22;5051735;28;20017;-69
2023/05/01 02:33:08;;;;;;;17.40;5.65;;;;;;;-144.73;99.53;54339.97;5049604;28;20028;-69
2023/05/01 02:35:42;;;;;;;9.43;4.85;;;;;;;-144.73;98.25;54337.91;5069636;28;20025;-70
2023/05/01 02:38:09;;;;;;;12.77;5.78;;;;;;;-144.73;97.60;54305.06;5070067;28;20041;-70
2023/05/01 02:40:37;;;;;;;15.07;5.88;;;;;;;-144.73;100.00;54346.13;5067143;28;20027;-68
2023/05/01 02:43:05;;;;;;;19.35;5.75;;;;;;;-144.73;100.00;54335.88;5073058;28;20495;-68
2023/05/01 02:45:36;;;;;;;21.80;5.32;;;;;;;-144.73;100.00;54342.03;5055587;28;20343;-68
2023/05/01 02:48:04;;;;;;;14.48;5.65;;;;;;;-144.73;100.00;54309.19;5063310;28;20045;-69
2023/05/01 02:50:30;;;;;;;16.65;5.82;;;;;;;-144.73;100.00;54337.91;5073360;28;20510;-68
2023/05/01 02:53:00;;;;;;;15.02;6.47;;;;;;;-144.73;100.00;54354.34;5072847;28;20033;-68
2023/05/01 02:55:26;;;;;;;10.85;4.68;;;;;;;-144.73;100.00;54342.03;5052624;28;20035;-68
2023/05/01 02:57:51;;;;;;;16.25;5.70;;;;;;;-144.73;100.00;54335.88;5073143;28;20025;-68
2023/05/01 03:00:17;;;;;;;17.83;5.50;;;;;;;-144.73;100.00;54292.75;5062547;28;20078;-69
2023/05/01 03:02:43;;;;;;;20.52;5.57;;;;;;;-144.73;100.00;54337.91;5060396;28;20028;-69
2023/05/01 03:05:09;;;;;;;16.38;6.53;;;;;;;-144.73;100.00;54333.81;5064865;28;20202;-69
2023/05/01 03:07:34;;;;;;;20.02;6.38;;;;;;;-144.73;100.00;54329.72;5066942;28;20511;-69
2023/05/01 03:10:02;;;;;;;15.70;6.35;;;;;;;-144.73;100.00;54329.72;5054785;28;20037;-69
2023/05/01 03:12:29;;;;;;;13.82;6.55;;;;;;;-144.73;100.00;54296.88;5072528;28;20055;-69
2023/05/01 03:14:54;;;;;;;15.57;5.50;;;;;;;-144.73;100.00;54309.19;5069246;28;20539;-69
2023/05/01 03:17:19;;;;;;;16.02;6.38;;;;;;;-144.73;100.00;54337.91;5054881;28;20108;-70
2023/05/01 03:19:45;;;;;;;15.35;5.05;;;;;;;-144.73;100.00;54325.59;5051267;28;20028;-70
2023/05/01 03:22:10;;;;;;;20.65;6.28;;;;;;;-144.73;100.00;54333.81;5054599;28;20040;-69
2023/05/01 03:24:36;;;;;;;14.43;5.97;;;;;;;-144.73;100.00;54350.22;5072583;28;20426;-69
2023/05/01 03:27:01;;;;;;;18.20;5.88;;;;;;;-144.73;100.00;54337.91;5042860;28;20037;-69
2023/05/01 03:29:26;;;;;;;18.10;5.82;;;;;;;-144.73;100.00;54362.53;5072246;28;20078;-69
2023/05/01 03:31:52;;;;;;;19.85;6.45;;;;;;;-144.73;100.00;54309.19;5051620;28;20036;-69
2023/05/01 03:34:17;;;;;;;16.70;5.90;;;;;;;-144.73;100.00;54309.19;5066656;28;20063;-69
2023/05/01 03:36:43;;;;;;;15.32;6.00;;;;;;;-144.73;100.00;54329.72;5068811;28;20036;-69
2023/05/01 03:39:08;;;;;;;11.32;5.13;;;;;;;-144.73;100.00;54333.81;5051286;28;20104;-70
2023/05/01 03:41:33;;;;;;;16.25;5.30;;;;;;;-144.73;100.00;54350.22;5053973;28;20037;-70
2023/05/01 03:43:58;;;;;;;15.48;5.43;;;;;;;-144.73;100.00;54325.59;5065848;28;20028;-69
2023/05/01 03:46:24;;;;;;;13.50;5.82;;;;;;;-144.73;100.00;54350.22;5051253;28;20123;-69
2023/05/01 03:48:49;;;;;;;17.08;6.10;;;;;;;-144.73;100.00;54358.44;5060865;28;20035;-70
2023/05/01 03:51:16;;;;;;;17.15;6.80;;;;;;;-144.73;100.00;54342.03;5050042;28;20049;-69
2023/05/01 03:53:42;;;;;;;12.98;6.57;;;;;;;-144.73;100.00;54370.75;5052314;28;20134;-69
2023/05/01 03:56:08;;;;;;;18.85;6.38;;;;;;;-144.73;100.00;54313.28;5054204;28;20028;-70
2023/05/01 03:58:33;;;;;;;18.10;7.13;;;;;;;-144.73;100.00;54346.13;5054279;28;20043;-69
2023/05/01 04:00:59;;;;;;;15.23;8.07;;;;;;;-144.73;100.00;54325.59;5054061;28;20071;-69
2023/05/01 04:03:25;;;;;;;12.73;6.03;;;;;;;-144.73;100.00;54329.72;5072160;28;20040;-69
2023/05/01 04:05:51;;;;;;;13.90;8.00;;;;;;;-144.73;100.00;54362.53;5070973;28;20029;-70
2023/05/01 04:08:17;;;;;;;21.88;6.75;;;;;;;-144.73;100.00;54337.91;5071955;28;20021;-68
2023/05/01 04:10:43;;;;;;;17.27;6.65;;;;;;;-144.73;100.00;54337.91;5045055;28;20024;-68
2023/05/01 04:13:09;;;;;;;14.75;6.30;;;;;;;-144.73;100.00;54325.59;5054118;28;20084;-70
2023/05/01 04:15:35;;;;;;;13.65;6.32;;;;;;;-144.73;100.00;54370.75;5053805;28;20024;-68
2023/05/01 04:18:00;;;;;;;13.48;5.20;;;;;;;-144.73;100.00;54305.06;5071391;28;20552;-68
2023/05/01 04:20:26;;;;;;;9.93;5.93;;;;;;;-144.73;100.00;54358.44;5065121;28;20111;-69
2023/05/01 04:22:51;;;;;;;19.52;5.90;;;;;;;-144.73;100.00;54350.22;5071137;28;20059;-68
2023/05/01 04:25:16;;;;;;;23.75;6.25;;;;;;;-144.73;100.00;54352.28;5050605;28;20033;-69
2023/05/01 04:27:42;;;;;;;10.43;5.53;;;;;;;-144.73;100.00;54337.91;5053763;28;20075;-69
2023/05/01 04:30:07;;;;;;;14.90;6.30;;;;;;;-144.73;100.00;54284.56;5053408;28;20025;-70
2023/05/01 04:32:34;;;;;;;13.27;7.53;;;;;;;-144.73;100.00;54366.66;5049678;28;20403;-69
2023/05/01 04:34:59;;;;;;;10.73;6.07;;;;;;;-144.73;100.00;54342.03;5071370;28;20077;-69
2023/05/01 04:37:25;;;;;;;19.55;7.03;;;;;;;-144.73;100.00;54288.66;5071287;28;20044;-69
2023/05/01 04:39:50;;;;;;;14.07;6.55;;;;;;;-144.73;100.00;54354.34;5053308;28;20029;-69
2023/05/01 04:42:16;;;;;;;12.25;5.85;;;;;;;-144.73;100.00;54307.13;5053576;28;20032;-69
2023/05/01 04:44:41;;;;;;;13.25;5.47;;;;;;;-144.73;100.00;54321.50;5069150;28;20035;-69
2023/05/01 04:47:07;;;;;;;14.90;6.28;;;;;;;-144.73;100.00;54288.66;5086072;28;20122;-70
2023/05/01 04:49:32;;;;;;;16.10;6.13;;;;;;;-144.73;100.00;54329.72;5064252;28;20037;-69
2023/05/01 04:51:58;;;;;;;18.27;5.47;;;;;;;-144.73;100.00;54317.38;5052901;28;20071;-69
2023/05/01 04:54:23;;;;;;;16.48;5.75;;;;;;;-144.73;100.00;54313.28;5071200;28;20032;-70
2023/05/01 04:56:49;;;;;;;18.15;5.68;;;;;;;-144.73;100.00;54333.81;5049276;28;20041;-70
2023/05/01 04:59:16;;;;;;;14.25;4.75;;;;;;;-144.73;100.00;54313.28;5072469;28;20024;-70
2023/05/01 05:01:41;;;;;;;13.68;5.20;;;;;;;-144.73;100.00;54319.44;5047123;28;20037;-70
2023/05/01 05:04:06;;;;;;;18.00;5.05;;;;;;;-144.73;100.00;54337.91;5062911;28;20013;-69
2023/05/01 05:06:32;;;;;;;12.32;5.80;;;;;;;-144.73;100.00;54325.59;5052855;28;20063;-69
2023/05/01 05:08:57;;;;;;;11.98;5.32;;;;;;;-144.73;100.00;54346.13;5052613;28;20028;-69
2023/05/01 05:11:22;;;;;;;15.45;4.97;;;;;;;-144.73;100.00;54313.28;5070367;28;20079;-69
2023/05/01 05:13:48;;;;;;;16.13;5.65;;;;;;;-144.73;100.00;54317.38;5081864;28;20094;-69
2023/05/01 05:16:14;;;;;;;12.18;5.30;;;;;;;-144.73;99.91;54337.91;5070579;28;20040;-69
2023/05/01 05:18:39;;;;;;;21.92;6.25;;;;;;;-144.73;99.75;54309.19;5052536;28;20086;-70
2023/05/01 05:21:05;;;;;;;10.30;4.60;;;;;;;-144.73;98.12;54333.81;5081983;28;20033;-70
2023/05/01 05:23:31;;;;;;;9.55;4.93;;;;;;;-144.73;98.25;54329.72;5082042;28;20032;-70
2023/05/01 05:26:00;;;;;;;9.68;4.70;;;;;;;-144.73;98.17;54346.13;5039906;28;20021;-70
2023/05/01 05:28:27;;;;;;;12.15;4.85;;;;;;;-144.73;97.55;54333.81;5056376;28;20024;-70
2023/05/01 05:30:53;;;;;;;8.15;4.43;;;;;;;-144.73;96.86;54305.06;5069803;28;20036;-70
2023/05/01 05:33:18;;;;;;;13.63;4.93;;;;;;;-144.73;96.75;54342.03;5055634;28;20028;-70
2023/05/01 05:35:44;;;;;;;13.52;5.20;;;;;;;-144.73;96.98;54333.81;5070077;28;20161;-70
2023/05/01 05:38:09;;;;;;;16.23;4.68;;;;;;;-144.73;97.01;54321.50;5049259;28;20016;-70
2023/05/01 05:40:35;;;;;;;16.83;4.20;;;;;;;-144.73;96.53;54325.59;5052159;28;20063;-70
2023/05/01 05:43:00;;;;;;;13.98;4.80;;;;;;;-144.73;96.04;54335.88;5048047;28;20052;-70
2023/05/01 05:45:26;;;;;;;12.05;4.68;;;;;;;-144.73;94.62;54350.22;5067162;28;20028;-69
2023/05/01 05:47:51;;;;;;;12.13;4.95;;;;;;;-144.73;95.03;54358.44;5050840;28;20024;-69
2023/05/01 05:50:16;;;;;;;15.07;4.40;;;;;;;-144.73;93.32;54339.97;5083710;28;20020;-70
2023/05/01 05:52:42;;;;;;;16.50;5.30;;;;;;;-144.73;93.55;54374.84;5090760;28;20032;-69
2023/05/01 05:55:07;;;;;;;18.35;5.15;;;;;;;-144.73;91.95;54333.81;5070602;28;20028;-69
2023/05/01 05:57:36;;;;;;;12.15;4.35;;;;;;;-144.73;91.65;54346.13;5061999;28;20029;-71
2023/05/01 06:00:03;;;;;;;11.77;4.47;;;;;;;-144.73;91.21;54358.44;5051804;28;20027;-70
2023/05/01 06:02:29;;;;;;;8.65;4.72;;;;;;;-144.73;90.96;54317.38;5065596;28;20033;-69
2023/05/01 06:04:55;;;;;;;10.18;4.10;;;;;;;-144.73;89.79;54313.28;5069559;28;20032;-69
2023/05/01 06:07:21;;;;;;;22.98;4.88;;;;;;;-144.73;88.55;54317.38;5049524;28;20041;-69
2023/05/01 06:09:47;;;;;;;9.68;4.18;;;;;;;-144.73;89.40;54383.06;5064609;28;20017;-69
2023/05/01 06:12:12;;;;;;;14.23;4.30;;;;;;;-144.73;88.58;54344.06;5069575;28;20039;-69
2023/05/01 06:14:37;;;;;;;14.07;4.15;;;;;;;-144.73;86.83;54317.38;5053583;28;20024;-70
2023/05/01 06:17:03;;;;;;;11.43;4.38;;;;;;;-144.73;86.06;54350.22;5073786;28;20025;-69
2023/05/01 06:19:28;;;;;;;8.65;3.97;;;;;;;-144.73;85.92;54346.13;5056143;28;20070;-69
2023/05/01 06:21:53;;;;;;;13.80;4.50;;;;;;;-144.73;85.55;54333.81;5048406;28;20151;-70
2023/05/01 06:24:18;;;;;;;11.70;5.05;;;;;;;-144.73;84.30;54362.53;5068752;28;20100;-71
2023/05/01 06:26:44;;;;;;;8.68;3.80;;;;;;;-144.73;84.70;54350.22;5068322;28;20117;-70
2023/05/01 06:29:09;;;;;;;15.88;4.45;;;;;;;-144.73;83.63;54366.66;5069402;28;20440;-70
2023/05/01 06:31:34;;;;;;;8.73;3.90;;;;;;;-144.73;82.56;54325.59;5055444;28;20107;-69
2023/05/01 06:34:00;;;;;;;18.88;4.93;;;;;;;-144.73;81.51;54309.19;5055784;28;20103;-70
2023/05/01 06:36:25;;;;;;;12.63;4.35;;;;;;;-144.73;79.92;54329.72;5055829;28;20058;-70
2023/05/01 06:38:51;;;;;;;8.77;3.75;;;;;;;-144.73;79.34;54303.03;5085208;28;20032;-70
2023/05/01 06:41:16;;;;;;;10.88;4.20;;;;;;;-144.73;78.87;54378.97;5049735;28;20041;-70
2023/05/01 06:43:41;;;;;;;9.13;3.88;;;;;;;-144.73;76.90;54325.59;5075271;28;20374;-70
2023/05/01 06:46:07;;;;;;;14.85;3.90;;;;;;;-144.73;75.85;54366.66;5054754;28;20040;-70
2023/05/01 06:48:32;;;;;;;13.73;4.13;;;;;;;-144.73;74.94;54342.03;5054255;28;20021;-70
2023/05/01 06:50:58;;;;;;;11.35;4.25;;;;;;;-144.73;74.78;54333.81;5054463;28;20051;-69
2023/05/01 06:53:23;;;;;;;13.93;4.15;;;;;;;-144.73;72.77;54346.13;5054572;28;20028;-69
2023/05/01 06:55:48;;;;;;;15.18;4.53;;;;;;;-144.73;70.89;54300.97;5054157;28;20673;-69
2023/05/01 06:58:17;;;;;;;10.18;4.18;;;;;;;-144.73;69.98;54333.81;5054661;28;20394;-70
2023/05/01 07:00:42;;;;;;;17.33;4.38;;;;;;;-144.73;69.93;54364.59;5053589;28;20043;-71
2023/05/01 07:03:08;;;;;;;11.10;3.80;;;;;;;-144.73;68.45;54317.38;5072211;28;20479;-69
2023/05/01 07:05:36;;;;;;;14.43;4.03;;;;;;;-144.73;69.30;54317.38;5072479;28;20021;-70
2023/05/01 07:08:01;;;;;;;15.00;4.00;;;;;;;-144.73;67.41;54325.59;5072032;28;20036;-69
2023/05/01 07:10:28;;;;;;;14.38;4.03;;;;;;;-144.73;67.62;54337.91;5054059;28;20071;-69
2023/05/01 07:12:53;;;;;;;17.20;3.67;;;;;;;-144.73;66.30;54317.38;5067831;28;20029;-70
2023/05/01 07:15:18;;;;;;;14.02;3.97;;;;;;;-144.73;65.95;54327.66;5054133;28;20058;-71
2023/05/01 07:17:45;;;;;;;10.43;3.40;;;;;;;-144.73;65.05;54329.72;5053609;28;20101;-70
2023/05/01 07:20:11;;;;;;;14.70;3.90;;;;;;;-144.73;64.24;54329.72;5071512;28;20082;-70
2023/05/01 07:22:36;;;;;;;8.68;3.53;;;;;;;-144.73;63.93;54348.19;5052556;28;20040;-70
2023/05/01 07:25:02;;;;;;;12.98;3.63;;;;;;;-144.73;63.13;54337.91;5071513;28;20024;-70
2023/05/01 07:27:27;;;;;;;12.15;3.42;;;;;;;-144.73;63.10;54350.22;5054730;28;20044;-69
2023/05/01 07:29:54;;;;;;;15.75;3.72;;;;;;;-144.73;61.92;54325.59;5074730;28;20077;-70
2023/05/01 07:32:20;;;;;;;10.52;3.58;;;;;;;-144.73;62.48;54317.38;5056481;28;20044;-69
2023/05/01 07:34:45;;;;;;;12.40;4.10;;;;;;;-144.73;61.29;54303.03;5047113;28;20206;-69
2023/05/01 07:37:11;;;;;;;12.68;3.88;;;;;;;-144.73;60.82;54259.91;5051423;28;20123;-70
2023/05/01 07:39:36;;;;;;;12.57;3.97;;;;;;;-144.73;60.61;54255.81;5068380;28;20025;-68
2023/05/01 07:42:01;;;;;;;8.88;3.10;;;;;;;-144.73;59.50;54305.06;5051479;28;20040;-68
2023/05/01 07:44:27;;;;;;;15.13;3.80;;;;;;;-144.73;59.94;54307.13;5050546;28;20332;-68
2023/05/01 07:46:52;;;;;;;9.18;3.55;;;;;;;-144.73;59.65;54300.97;5069350;28;20050;-68
2023/05/01 07:49:17;;;;;;;14.43;3.20;;;;;;;-144.73;58.96;54284.56;5050806;28;20024;-69
2023/05/01 07:51:44;;;;;;;12.23;3.60;;;;;;;-144.73;58.71;54239.41;5050578;28;20533;-69
2023/05/01 07:54:09;;;;;;;15.57;3.45;;;;;;;-144.73;57.80;54317.38;5051900;28;20038;-69
2023/05/01 07:56:35;;;;;;;13.43;4.32;;;;;;;-144.73;57.66;54280.44;5050420;28;20041;-68
2023/05/01 07:59:00;;;;;;;9.80;3.63;;;;;;;-144.73;58.12;54253.75;5069483;28;20025;-68
2023/05/01 08:01:25;;;;;;;12.43;3.53;;;;;;;-144.73;58.24;54313.28;5050289;28;20032;-71
2023/05/01 08:03:51;;;;;;;8.52;3.22;;;;;;;-144.73;56.51;54251.72;5044019;28;20028;-72
2023/05/01 08:06:16;;;;;;;9.30;3.25;;;;;;;-144.73;56.38;54292.75;5066069;28;20045;-72
2023/05/01 08:08:41;;;;;;;11.30;3.35;;;;;;;-144.73;56.93;54251.72;5045182;28;20077;-72
2023/05/01 08:11:07;;;;;;;14.52;3.47;;;;;;;-144.73;56.53;54342.03;5045234;28;20029;-72
2023/05/01 08:13:33;;;;;;;12.15;3.83;;;;;;;-144.73;54.92;54309.19;5062655;28;20021;-71
2023/05/01 08:16:02;;;;;;;11.70;3.75;;;;;;;-144.73;55.19;54278.41;5044907;28;20059;-72
2023/05/01 08:18:28;;;;;;;13.07;3.55;;;;;;;-144.73;55.80;54305.06;5040935;28;20024;-70
2023/05/01 08:20:53;;;;;;;12.60;3.92;;;;;;;-144.73;54.74;54288.66;5043430;28;20055;-72
2023/05/01 08:23:23;;;;;;;11.50;3.67;;;;;;;-144.73;55.31;54288.66;5044449;28;20025;-73
2023/05/01 08:25:50;;;;;;;11.63;4.25;;;;;;;-144.73;54.29;54317.38;5063195;28;20025;-71
2023/05/01 08:28:17;;;;;;;13.45;3.85;;;;;;;-144.73;55.09;54282.50;5044911;28;20021;-72
2023/05/01 08:30:43;;;;;;;12.98;3.83;;;;;;;-144.73;54.11;54284.56;5041453;28;20402;-71
2023/05/01 08:33:08;;;;;;;10.95;3.95;;;;;;;-144.73;54.43;54268.13;5044651;28;20016;-73
2023/05/01 08:35:34;;;;;;;11.90;3.33;;;;;;;-144.73;54.07;54251.72;5044124;28;20036;-72
2023/05/01 08:38:00;;;;;;;8.35;3.38;;;;;;;-144.73;54.64;54325.59;5044756;28;20047;-72
2023/05/01 08:40:26;;;;;;;10.50;3.90;;;;;;;-144.73;54.95;54276.34;5043825;28;20009;-72
2023/05/01 08:42:51;;;;;;;14.98;3.70;;;;;;;-144.73;55.74;54255.81;5060215;28;20025;-72
2023/05/01 08:45:20;;;;;;;9.43;4.45;;;;;;;-144.73;53.47;54261.97;5042207;28;20059;-72
2023/05/01 08:47:47;;;;;;;13.50;4.28;;;;;;;-144.73;54.06;54284.56;5059385;28;20045;-72
2023/05/01 08:50:14;;;;;;;10.95;3.80;;;;;;;-144.73;54.40;54284.56;5063232;28;20020;-72
2023/05/01 08:52:43;;;;;;;8.18;3.92;;;;;;;-144.73;53.05;54284.56;5038242;28;20036;-72
2023/05/01 08:55:13;;;;;;;7.95;3.55;;;;;;;-144.73;52.60;54276.34;5067839;28;20036;-72
2023/05/01 08:57:45;;;;;;;11.73;3.67;;;;;;;-144.73;54.74;54292.75;5039787;28;20036;-72
2023/05/01 09:00:17;;;;;;;13.93;3.80;;;;;;;-144.73;54.25;54255.81;5062432;28;20025;-72
2023/05/01 09:02:43;;;;;;;13.48;3.78;;;;;;;-144.73;53.31;54296.88;5037523;28;20040;-72
2023/05/01 09:05:09;;;;;;;9.52;4.00;;;;;;;-144.73;53.07;54298.91;5042897;28;20052;-74
2023/05/01 09:07:36;;;;;;;11.55;3.80;;;;;;;-144.73;53.27;54325.59;5039963;28;20045;-72
2023/05/01 09:10:01;;;;;;;9.80;4.40;;;;;;;-144.73;52.81;54280.44;5038242;28;20040;-72
2023/05/01 09:12:28;;;;;;;11.70;3.70;;;;;;;-144.73;53.77;54235.28;5055997;28;20177;-72
2023/05/01 09:14:55;;;;;;;9.98;3.70;;;;;;;-144.73;52.90;54296.88;5039245;28;20021;-73
2023/05/01 09:17:22;;;;;;;11.45;3.97;;;;;;;-144.73;50.81;54276.34;5042154;28;20040;-72
2023/05/01 09:19:49;;;;;;;10.82;3.65;;;;;;;-144.73;49.47;54276.34;5041357;28;20024;-72
2023/05/01 09:22:15;;;;;;;9.52;3.17;;;;;;;-144.73;50.28;54243.50;5058119;28;20045;-71
2023/05/01 09:24:40;;;;;;;15.60;3.97;;;;;;;-144.73;46.30;54294.81;5055745;28;20044;-72
2023/05/01 09:27:06;;;;;;;10.40;3.17;;;;;;;-144.73;45.38;54284.56;5070392;28;20037;-73
2023/05/01 09:29:40;;;;;;;12.23;3.33;;;;;;;-144.73;44.33;54305.06;5039641;28;20038;-72
2023/05/01 09:32:23;;;;;;;8.52;3.30;;;;;;;-144.73;43.87;54286.59;5038522;28;20177;-72
2023/05/01 09:34:50;;;;;;;8.23;2.78;;;;;;;-144.73;43.48;54284.56;5040804;28;20025;-71
2023/05/01 09:37:30;;;;;;;10.40;3.72;;;;;;;-144.73;43.34;54261.97;5059854;28;20073;-71
2023/05/01 09:40:01;;;;;;;11.73;3.90;;;;;;;-144.73;42.88;54342.03;5069905;28;20043;-72
2023/05/01 09:42:27;;;;;;;9.02;3.03;;;;;;;-144.73;42.34;54342.03;5037321;28;20044;-71
2023/05/01 09:44:53;;;;;;;12.10;3.85;;;;;;;-144.73;41.94;54329.72;5057438;28;20020;-72
2023/05/01 09:47:21;;;;;;;10.77;3.65;;;;;;;-144.73;42.94;54218.88;5039690;28;20191;-71
2023/05/01 09:49:48;;;;;;;11.60;3.17;;;;;;;-144.73;43.25;54264.03;5035361;28;20073;-71
2023/05/01 09:52:14;;;;;;;8.80;3.17;;;;;;;-144.73;41.87;54276.34;5040777;28;20032;-71
2023/05/01 09:54:40;;;;;;;14.27;4.43;;;;;;;-144.73;42.11;54243.50;5053067;28;20035;-72
2023/05/01 09:57:05;;;;;;;9.40;3.17;;;;;;;-144.73;42.73;54247.59;5034146;28;20032;-71
2023/05/01 09:59:33;;;;;;;10.60;3.55;;;;;;;-144.73;41.91;54276.34;5057229;28;20020;-72
2023/05/01 10:01:58;;;;;;;9.48;3.97;;;;;;;-144.73;41.50;54231.19;5040673;28;20114;-71
2023/05/01 10:04:34;;;;;;;9.20;3.38;;;;;;;-144.73;41.60;54255.81;5041102;28;20067;-72
2023/05/01 10:07:12;;;;;;;9.48;3.47;;;;;;;-144.73;40.66;54280.44;5043601;28;20057;-73
2023/05/01 10:09:37;;;;;;;8.85;3.40;;;;;;;-144.73;40.56;54247.59;5039277;28;20013;-72
2023/05/01 10:12:03;;;;;;;13.88;2.97;;;;;;;-144.73;41.14;54298.91;5039609;28;20040;-71
2023/05/01 10:14:29;;;;;;;7.07;2.95;;;;;;;-144.73;40.75;54284.56;5061825;28;20035;-72
2023/05/01 10:16:58;;;;;;;9.35;3.10;;;;;;;-144.73;40.08;54255.81;5059969;28;20040;-72
2023/05/01 10:19:24;;;;;;;12.52;3.45;;;;;;;-144.73;38.59;54292.75;5069285;28;20039;-72
2023/05/01 10:21:49;;;;;;;16.42;3.30;;;;;;;-144.73;39.25;54255.81;5053307;28;20033;-72
2023/05/01 10:24:15;;;;;;;13.05;3.08;;;;;;;-144.73;39.02;54278.41;5049903;28;20028;-72
2023/05/01 10:26:42;;;;;;;7.22;3.42;;;;;;;-144.73;39.52;54243.50;5033853;28;20048;-72
2023/05/01 10:29:07;;;;;;;13.32;3.15;;;;;;;-144.73;38.57;54247.59;5058875;28;20017;-72
2023/05/01 10:31:34;;;;;;;9.38;2.95;;;;;;;-144.73;38.07;54259.91;5055847;28;20052;-73
2023/05/01 10:34:00;;;;;;;6.82;2.83;;;;;;;-144.73;37.00;54268.13;5056931;28;20032;-73
2023/05/01 10:36:33;;;;;;;11.63;4.05;;;;;;;-144.73;36.28;54251.72;5074138;28;20037;-72
2023/05/01 10:38:59;;;;;;;7.68;2.63;;;;;;;-144.73;35.71;54266.06;5039078;28;20029;-73
2023/05/01 10:42:03;;;;;;;13.18;3.38;;;;;;;-144.73;35.89;54261.97;5038318;28;20048;-73
2023/05/01 10:44:29;;;;;;;7.82;2.92;;;;;;;-144.73;34.26;54266.06;5040839;28;20033;-74
2023/05/01 10:46:55;;;;;;;8.63;2.63;;;;;;;-144.73;33.46;54235.28;5036461;28;20044;-74
2023/05/01 10:49:21;;;;;;;10.65;2.90;;;;;;;-144.73;35.18;54255.81;5040577;28;20033;-73
2023/05/01 10:51:58;;;;;;;12.35;3.58;;;;;;;-144.73;35.32;54276.34;5054996;28;20158;-73
2023/05/01 10:54:28;;;;;;;6.90;2.95;;;;;;;-144.73;34.89;54194.25;5036520;28;20036;-72
2023/05/01 10:57:00;;;;;;;11.18;2.65;;;;;;;-144.73;33.59;54288.66;5038249;28;20033;-73
2023/05/01 10:59:27;;;;;;;10.27;2.80;;;;;;;-144.73;33.81;54264.03;5041375;28;20051;-72
2023/05/01 11:01:53;;;;;;;6.55;3.10;;;;;;;-144.73;33.06;54210.66;5058710;28;20495;-72
2023/05/01 11:04:25;;;;;;;9.13;2.97;;;;;;;-144.73;34.01;54239.41;5044423;28;20024;-73
2023/05/01 11:07:12;;;;;;;5.97;2.72;;;;;;;-144.73;33.75;54294.81;5061204;28;20056;-73
2023/05/01 11:09:47;;;;;;;8.30;2.67;;;;;;;-144.73;33.08;54222.97;5038716;28;20074;-73
2023/05/01 11:12:15;;;;;;;10.18;3.08;;;;;;;-144.73;32.95;54202.44;5062679;28;20071;-73